Time;durP1;ratioP1;P1;durP2;ratioP2;P2;SDS_P1;SDS_P2;PMS_P1;PMS_P2;Temp;Humidity;BMP_temperature;BMP_pressure;BME280_temperature;BME280_humidity;BME280_pressure;Samples;Min_cycle;Max_cycle;Signal;HPM_P1;HPM_P2
2021/12/25 00:02:16;;;;;;;6.82;4.97;;;5.00;99.90;;;;;;7253065;32;20667;-77
2021/12/25 00:06:19;;;;;;;5.57;4.28;;;5.00;99.90;;;;;;7234601;32;20828;-76
2021/12/25 00:10:21;;;;;;;6.62;5.25;;;5.10;99.90;;;;;;7237061;32;20128;-76
2021/12/25 00:14:23;;;;;;;7.93;4.97;;;5.00;99.90;;;;;;7238609;32;20179;-76
2021/12/25 00:18:24;;;;;;;6.20;5.07;;;5.00;99.90;;;;;;7245939;32;20184;-75
2021/12/25 00:22:27;;;;;;;7.15;4.87;;;5.00;99.90;;;;;;7225231;32;20563;-77
2021/12/25 00:26:56;;;;;;;5.72;3.62;;;5.00;99.90;;;;;;7237310;32;20722;-78
2021/12/25 00:35:06;;;;;;;6.20;3.62;;;4.80;99.90;;;;;;7252963;32;20219;-77
2021/12/25 00:39:08;;;;;;;4.93;3.80;;;4.80;99.90;;;;;;7237518;32;20490;-77
2021/12/25 00:43:10;;;;;;;5.60;3.80;;;4.70;99.90;;;;;;7248754;32;20204;-76
2021/12/25 00:47:11;;;;;;;6.12;4.20;;;4.70;99.90;;;;;;7242388;32;21626;-77
2021/12/25 00:51:13;;;;;;;5.60;4.22;;;4.60;99.90;;;;;;7240764;32;20227;-78
2021/12/25 00:55:15;;;;;;;6.68;5.30;;;4.50;99.90;;;;;;7239392;32;20264;-76
2021/12/25 00:59:17;;;;;;;8.48;5.97;;;4.50;99.90;;;;;;7264046;32;20117;-75
2021/12/25 01:03:18;;;;;;;9.82;6.45;;;4.60;99.90;;;;;;7252327;32;20112;-79
2021/12/25 01:07:20;;;;;;;9.90;6.68;;;4.50;99.90;;;;;;7241718;32;20180;-77
2021/12/25 01:11:28;;;;;;;8.93;6.90;;;4.50;99.90;;;;;;7254841;32;20941;-77
2021/12/25 01:20:27;;;;;;;8.90;6.82;;;4.30;99.90;;;;;;7223193;32;20154;-78
2021/12/25 01:33:16;;;;;;;13.43;8.75;;;4.20;99.90;;;;;;7256680;32;20140;-77
2021/12/25 01:37:23;;;;;;;11.85;8.15;;;4.10;99.90;;;;;;7254038;32;20116;-78
2021/12/25 01:49:52;;;;;;;12.20;8.77;;;4.00;99.90;;;;;;7246071;32;20128;-77
2021/12/25 01:53:53;;;;;;;13.88;9.88;;;3.90;99.90;;;;;;7250971;32;20763;-78
2021/12/25 01:57:57;;;;;;;15.15;10.25;;;3.90;99.90;;;;;;7238661;32;20948;-77
2021/12/25 02:01:59;;;;;;;16.17;11.85;;;4.00;99.90;;;;;;7246934;32;20142;-78
2021/12/25 02:06:01;;;;;;;18.02;12.25;;;3.90;99.90;;;;;;7234942;32;20606;-77
2021/12/25 02:10:05;;;;;;;17.95;13.40;;;3.90;99.90;;;;;;7254977;32;20112;-77
2021/12/25 02:14:07;;;;;;;19.20;13.27;;;3.90;99.90;;;;;;7256273;32;20113;-77
2021/12/25 02:18:14;;;;;;;16.92;11.77;;;3.80;99.90;;;;;;7236121;32;20104;-77
2021/12/25 02:22:18;;;;;;;16.15;11.93;;;3.80;99.90;;;;;;7256782;32;20553;-78
2021/12/25 02:26:21;;;;;;;16.98;12.07;;;3.80;99.90;;;;;;7257440;32;20176;-78
2021/12/25 02:30:23;;;;;;;19.33;12.52;;;3.70;99.90;;;;;;7256194;32;20207;-78
2021/12/25 02:34:25;;;;;;;15.98;11.63;;;3.50;99.90;;;;;;7225694;32;20211;-79
2021/12/25 02:38:27;;;;;;;17.02;11.63;;;3.50;99.90;;;;;;7236586;32;20700;-78
2021/12/25 02:42:29;;;;;;;16.30;11.50;;;3.50;99.90;;;;;;7256169;32;20250;-78
2021/12/25 02:46:31;;;;;;;14.35;10.63;;;3.40;99.90;;;;;;7244250;32;20180;-78
2021/12/25 02:50:34;;;;;;;16.00;11.73;;;3.30;99.90;;;;;;7258307;32;20512;-78
2021/12/25 02:54:35;;;;;;;17.48;12.23;;;3.30;99.90;;;;;;7240860;32;20271;-78
2021/12/25 02:58:37;;;;;;;15.70;11.50;;;3.30;99.90;;;;;;7260461;32;20104;-78
2021/12/25 03:02:39;;;;;;;18.20;13.05;;;3.30;99.90;;;;;;7262449;32;20113;-78
2021/12/25 03:06:41;;;;;;;15.88;12.02;;;3.20;99.90;;;;;;7255322;32;20145;-79
2021/12/25 03:10:43;;;;;;;19.55;13.60;;;3.20;99.90;;;;;;7278681;32;20073;-80
2021/12/25 03:19:29;;;;;;;19.67;13.35;;;3.20;99.90;;;;;;7252624;32;20164;-80
2021/12/25 03:23:33;;;;;;;19.40;14.70;;;3.10;99.90;;;;;;7268733;32;20239;-76
2021/12/25 03:27:36;;;;;;;19.10;13.70;;;3.10;99.90;;;;;;7295997;32;20104;-77
2021/12/25 03:31:38;;;;;;;17.98;14.23;;;3.00;99.90;;;;;;7282339;32;20243;-77
2021/12/25 03:35:40;;;;;;;21.33;16.37;;;2.90;99.90;;;;;;7295437;32;20077;-75
2021/12/25 03:39:42;;;;;;;18.35;13.65;;;2.70;99.90;;;;;;7272055;32;20146;-77
2021/12/25 03:43:45;;;;;;;19.10;13.98;;;2.70;99.90;;;;;;7230845;32;20112;-77
2021/12/25 03:47:50;;;;;;;19.65;14.00;;;2.80;99.90;;;;;;7230483;32;20120;-77
2021/12/25 04:00:35;;;;;;;19.15;13.85;;;2.80;99.90;;;;;;7253970;32;20121;-78
2021/12/25 04:04:42;;;;;;;17.92;13.35;;;2.80;99.90;;;;;;7251898;32;20162;-78
2021/12/25 04:08:46;;;;;;;19.65;13.88;;;2.70;99.90;;;;;;7240274;32;20184;-78
2021/12/25 04:12:48;;;;;;;20.83;15.27;;;2.80;99.90;;;;;;7237131;32;20117;-76
2021/12/25 04:16:50;;;;;;;18.95;14.38;;;2.80;99.90;;;;;;7254784;32;20183;-77
2021/12/25 04:20:52;;;;;;;19.20;14.40;;;2.80;99.90;;;;;;7251326;32;20184;-77
2021/12/25 04:24:54;;;;;;;20.62;14.70;;;2.80;99.90;;;;;;7247459;32;20100;-77
2021/12/25 05:07:44;;;;;;;24.20;16.83;;;2.30;99.90;;;;;;7257673;32;20124;-77
2021/12/25 05:11:45;;;;;;;23.80;15.38;;;2.20;99.90;;;;;;7247420;32;20278;-76
2021/12/25 05:15:47;;;;;;;25.37;16.55;;;2.20;99.90;;;;;;7254694;32;20112;-77
2021/12/25 05:19:49;;;;;;;22.15;15.18;;;2.10;99.90;;;;;;7257656;32;20112;-77
2021/12/25 05:23:51;;;;;;;24.52;16.98;;;2.10;99.90;;;;;;7244640;32;20138;-76
2021/12/25 05:27:53;;;;;;;24.63;16.52;;;2.00;99.90;;;;;;7245348;32;20130;-76
2021/12/25 05:31:55;;;;;;;25.92;16.73;;;2.00;99.90;;;;;;7237870;32;20822;-77
2021/12/25 05:35:56;;;;;;;20.90;15.10;;;2.00;99.90;;;;;;7240974;32;20105;-76
2021/12/25 05:40:00;;;;;;;21.42;14.50;;;1.90;99.90;;;;;;7257836;32;20096;-76
2021/12/25 05:44:03;;;;;;;17.37;12.43;;;1.90;99.90;;;;;;7242928;32;20112;-77
2021/12/25 05:48:05;;;;;;;19.12;13.68;;;1.80;99.90;;;;;;7256685;32;20122;-77
2021/12/25 05:52:07;;;;;;;19.77;13.68;;;1.80;99.90;;;;;;7253204;32;20216;-77
2021/12/25 05:56:10;;;;;;;22.20;14.52;;;1.80;99.90;;;;;;7242842;32;20543;-77
2021/12/25 06:00:12;;;;;;;20.15;12.52;;;1.70;99.90;;;;;;7228208;32;20813;-78
2021/12/25 06:04:13;;;;;;;17.33;12.13;;;1.70;99.90;;;;;;7253851;32;20179;-77
2021/12/25 06:08:16;;;;;;;17.60;11.85;;;1.60;99.90;;;;;;7250285;32;20221;-76
2021/12/25 06:12:18;;;;;;;15.57;11.20;;;1.50;99.90;;;;;;7254451;32;20132;-77
2021/12/25 06:16:19;;;;;;;16.60;11.75;;;1.60;99.90;;;;;;7255164;32;20096;-78
2021/12/25 06:20:22;;;;;;;16.58;11.23;;;1.60;99.90;;;;;;7242636;32;20641;-77
2021/12/25 06:24:25;;;;;;;17.20;12.68;;;1.50;99.90;;;;;;7241876;32;20117;-77
2021/12/25 06:28:27;;;;;;;15.23;11.02;;;1.40;99.90;;;;;;7255900;32;20124;-77
2021/12/25 06:32:29;;;;;;;16.62;11.55;;;1.40;99.90;;;;;;7241372;32;20124;-76
2021/12/25 06:36:31;;;;;;;17.23;11.70;;;1.30;99.90;;;;;;7238588;32;20117;-77
2021/12/25 06:40:33;;;;;;;19.87;12.40;;;1.20;99.90;;;;;;7237375;32;20142;-77
2021/12/25 06:44:35;;;;;;;16.90;12.13;;;1.20;99.90;;;;;;7240076;32;20104;-77
2021/12/25 06:48:37;;;;;;;16.87;11.40;;;1.20;99.90;;;;;;7253845;32;20287;-77
2021/12/25 06:52:41;;;;;;;16.08;11.75;;;1.10;99.90;;;;;;7228925;32;20143;-77
2021/12/25 06:56:44;;;;;;;16.30;10.88;;;1.10;99.90;;;;;;7240525;32;20112;-77
2021/12/25 07:00:45;;;;;;;16.42;11.05;;;1.10;99.90;;;;;;7228572;32;20205;-78
2021/12/25 07:04:48;;;;;;;15.15;11.60;;;1.00;99.90;;;;;;7239596;32;20096;-77
2021/12/25 07:08:50;;;;;;;16.60;11.12;;;1.00;99.90;;;;;;7253693;32;20135;-77
2021/12/25 07:12:54;;;;;;;14.87;10.85;;;1.00;99.90;;;;;;7239426;32;20203;-77
2021/12/25 07:16:55;;;;;;;17.12;11.70;;;0.90;99.90;;;;;;7254289;32;20188;-75
2021/12/25 07:20:57;;;;;;;17.08;11.23;;;0.90;99.90;;;;;;7246574;32;20126;-76
2021/12/25 07:24:59;;;;;;;16.35;11.18;;;0.80;99.90;;;;;;7254030;32;20234;-77
2021/12/25 07:29:01;;;;;;;14.87;10.85;;;0.80;99.90;;;;;;7240461;32;20232;-76
2021/12/25 07:33:03;;;;;;;15.90;11.55;;;0.80;99.90;;;;;;7251326;32;20133;-76
2021/12/25 07:37:05;;;;;;;15.98;11.75;;;0.80;99.90;;;;;;7237966;32;20135;-76
2021/12/25 07:41:06;;;;;;;16.60;12.25;;;0.70;99.90;;;;;;7248063;32;20530;-77
2021/12/25 07:45:10;;;;;;;15.90;11.73;;;0.70;99.90;;;;;;7232770;32;20155;-77
2021/12/25 07:49:18;;;;;;;15.95;11.75;;;0.70;99.90;;;;;;7246218;32;20226;-76
2021/12/25 07:53:20;;;;;;;15.43;11.38;;;0.70;99.90;;;;;;7243279;32;20108;-76
2021/12/25 07:57:22;;;;;;;17.00;11.88;;;0.80;99.90;;;;;;7243358;32;20104;-77
2021/12/25 08:01:23;;;;;;;15.32;11.10;;;0.70;99.90;;;;;;7221662;32;20097;-79
2021/12/25 08:05:25;;;;;;;15.52;10.57;;;0.70;99.90;;;;;;7236242;32;21672;-76
2021/12/25 08:09:31;;;;;;;14.87;11.30;;;0.70;99.90;;;;;;7260742;32;20238;-76
2021/12/25 08:13:33;;;;;;;18.77;12.60;;;0.70;99.90;;;;;;7248056;32;20762;-76
2021/12/25 08:17:35;;;;;;;15.70;11.25;;;0.60;99.90;;;;;;7238287;32;20108;-77
2021/12/25 08:21:37;;;;;;;15.18;11.18;;;0.70;99.90;;;;;;7258252;32;20100;-76
2021/12/25 08:25:39;;;;;;;15.88;11.65;;;0.70;99.90;;;;;;7259038;32;20211;-76
2021/12/25 08:29:40;;;;;;;15.98;10.45;;;0.60;99.90;;;;;;7234997;32;20113;-77
2021/12/25 08:33:42;;;;;;;16.33;11.07;;;0.60;99.90;;;;;;7235271;32;20113;-76
2021/12/25 08:37:44;;;;;;;14.63;11.05;;;0.60;99.90;;;;;;7255069;32;20096;-76
2021/12/25 08:41:46;;;;;;;16.98;11.65;;;0.70;99.90;;;;;;7258249;32;20105;-76
2021/12/25 08:46:00;;;;;;;17.55;11.32;;;0.60;99.90;;;;;;7223897;32;20109;-78
2021/12/25 08:50:07;;;;;;;16.35;11.38;;;0.60;99.90;;;;;;7255937;32;20116;-75
2021/12/25 08:54:09;;;;;;;15.43;11.25;;;0.50;99.90;;;;;;7252656;32;20227;-77
2021/12/25 08:58:12;;;;;;;17.00;11.82;;;0.60;99.90;;;;;;7240225;32;20215;-75
2021/12/25 09:02:17;;;;;;;21.20;13.98;;;0.60;99.90;;;;;;7235382;32;20121;-76
2021/12/25 09:06:18;;;;;;;17.55;11.52;;;0.60;99.90;;;;;;7253131;32;20109;-76
2021/12/25 09:10:21;;;;;;;15.30;11.88;;;0.70;99.90;;;;;;7237086;32;20245;-76
2021/12/25 09:14:24;;;;;;;14.60;10.93;;;0.60;99.90;;;;;;7224151;32;20130;-77
2021/12/25 09:18:26;;;;;;;14.73;10.13;;;0.70;99.90;;;;;;7230474;32;20234;-76
2021/12/25 09:22:28;;;;;;;16.48;11.60;;;0.70;99.90;;;;;;7238364;32;20536;-76
2021/12/25 09:26:29;;;;;;;12.82;9.73;;;0.80;99.90;;;;;;7254654;32;20142;-75
2021/12/25 09:30:31;;;;;;;14.07;10.30;;;0.80;99.90;;;;;;7236252;32;20109;-75
2021/12/25 09:34:48;;;;;;;14.85;10.63;;;0.80;99.90;;;;;;7239844;32;20133;-76
2021/12/25 09:38:50;;;;;;;11.12;8.65;;;0.80;99.90;;;;;;7226905;32;20696;-76
2021/12/25 09:42:53;;;;;;;11.88;9.30;;;0.70;99.90;;;;;;7237755;32;20126;-77
2021/12/25 09:46:55;;;;;;;11.77;8.18;;;0.70;99.90;;;;;;7255409;32;20371;-78
2021/12/25 09:51:11;;;;;;;10.45;8.02;;;0.70;99.90;;;;;;7254906;32;20808;-76
2021/12/25 09:55:15;;;;;;;14.00;7.47;;;0.60;99.90;;;;;;7252645;32;20802;-76
2021/12/25 09:59:17;;;;;;;9.05;7.60;;;0.70;99.90;;;;;;7251813;32;20191;-77
2021/12/25 10:03:20;;;;;;;11.38;7.57;;;0.70;99.90;;;;;;7233941;32;20104;-76
2021/12/25 10:07:26;;;;;;;18.92;11.27;;;0.70;99.90;;;;;;7258322;32;20099;-78
2021/12/25 10:11:30;;;;;;;8.50;6.60;;;0.70;99.90;;;;;;7269228;32;20084;-77
2021/12/25 10:15:32;;;;;;;10.60;6.72;;;0.80;99.90;;;;;;7279454;32;20076;-78
2021/12/25 10:19:34;;;;;;;7.18;5.47;;;0.80;99.90;;;;;;7292222;32;20068;-76
2021/12/25 10:23:36;;;;;;;5.97;4.87;;;0.90;99.90;;;;;;7284848;32;20093;-77
2021/12/25 10:28:00;;;;;;;6.85;4.93;;;0.80;99.90;;;;;;7278487;32;20069;-78
2021/12/25 10:32:20;;;;;;;6.65;4.87;;;0.80;99.90;;;;;;7282945;32;20061;-75
2021/12/25 10:36:22;;;;;;;7.07;4.90;;;0.80;99.90;;;;;;7228898;32;20109;-76
2021/12/25 10:40:28;;;;;;;5.25;4.35;;;0.80;99.90;;;;;;7256666;32;20112;-76
2021/12/25 10:44:36;;;;;;;8.63;5.57;;;0.70;99.90;;;;;;7262738;32;20125;-76
2021/12/25 10:48:37;;;;;;;7.95;5.68;;;0.80;99.90;;;;;;7267771;32;20230;-76
2021/12/25 10:52:45;;;;;;;5.45;4.57;;;0.80;99.90;;;;;;7257427;32;20155;-75
2021/12/25 10:56:49;;;;;;;6.12;4.35;;;0.70;99.90;;;;;;7234020;32;20116;-75
2021/12/25 11:00:57;;;;;;;5.90;3.95;;;0.70;99.90;;;;;;7238801;32;20128;-75
2021/12/25 11:04:59;;;;;;;5.85;4.05;;;0.60;99.90;;;;;;7238961;32;20124;-74
2021/12/25 11:09:00;;;;;;;5.35;3.28;;;0.70;99.90;;;;;;7239501;32;20131;-74
2021/12/25 11:13:25;;;;;;;5.65;3.92;;;0.60;99.90;;;;;;7238945;32;20116;-75
2021/12/25 11:17:32;;;;;;;6.85;4.37;;;0.50;99.90;;;;;;7233559;32;20247;-75
2021/12/25 11:21:55;;;;;;;7.70;4.22;;;0.40;99.90;;;;;;7252845;32;20174;-75
2021/12/25 11:25:56;;;;;;;5.07;3.67;;;0.30;99.90;;;;;;7252258;32;20255;-75
2021/12/25 11:29:58;;;;;;;5.60;4.10;;;0.20;99.90;;;;;;7246934;32;20752;-75
2021/12/25 11:34:00;;;;;;;4.93;3.65;;;0.30;99.90;;;;;;7253036;32;20806;-75
2021/12/25 11:38:05;;;;;;;5.70;4.00;;;0.40;99.90;;;;;;7226125;32;20571;-75
2021/12/25 11:42:09;;;;;;;8.20;4.85;;;0.50;99.90;;;;;;7251290;32;20195;-76
2021/12/25 11:46:14;;;;;;;6.87;4.57;;;0.60;99.90;;;;;;7250346;32;20109;-76
2021/12/25 11:50:24;;;;;;;8.48;4.93;;;0.70;99.90;;;;;;7235434;32;20130;-75
2021/12/25 11:55:20;;;;;;;4.20;3.05;;;0.80;99.90;;;;;;7230007;32;20876;-75
2021/12/25 11:58:54;;;;;;;6.70;4.25;;;0.60;99.90;;;;;;7241238;32;20113;-75
2021/12/25 12:02:56;;;;;;;7.15;3.42;;;0.60;99.90;;;;;;7236928;32;20116;-76
2021/12/25 12:07:00;;;;;;;12.63;6.95;;;0.60;99.90;;;;;;7257059;32;20851;-76
2021/12/25 12:11:02;;;;;;;13.85;6.32;;;0.60;99.90;;;;;;7236962;32;20495;-74
2021/12/25 12:15:07;;;;;;;6.00;3.67;;;0.80;99.90;;;;;;7237563;32;20199;-76
2021/12/25 12:19:31;;;;;;;14.63;7.28;;;0.70;99.90;;;;;;7249796;32;20130;-75
2021/12/25 12:27:52;;;;;;;18.60;8.38;;;0.70;99.90;;;;;;7258766;32;20252;-76
2021/12/25 12:31:54;;;;;;;9.88;4.22;;;0.90;99.90;;;;;;7240658;32;20139;-74
2021/12/25 12:35:57;;;;;;;7.10;4.53;;;0.90;99.90;;;;;;7252593;32;20138;-74
2021/12/25 12:40:18;;;;;;;5.65;3.60;;;0.90;99.90;;;;;;7246361;32;20234;-77
2021/12/25 12:44:31;;;;;;;5.25;2.97;;;1.10;99.90;;;;;;7247872;32;20112;-75
2021/12/25 12:48:33;;;;;;;3.25;2.15;;;1.10;99.90;;;;;;7265460;32;20112;-75
2021/12/25 12:52:40;;;;;;;5.00;3.30;;;1.10;99.90;;;;;;7254391;32;20144;-76
2021/12/25 12:57:01;;;;;;;4.20;2.55;;;1.00;99.90;;;;;;7241649;32;20178;-77
2021/12/25 13:01:10;;;;;;;3.65;2.22;;;0.90;99.90;;;;;;7255529;32;20125;-76
2021/12/25 13:05:13;;;;;;;4.47;2.92;;;0.80;99.90;;;;;;7241121;32;20128;-76
2021/12/25 13:09:16;;;;;;;6.30;2.83;;;0.80;99.90;;;;;;7254432;32;20130;-76
2021/12/25 13:13:31;;;;;;;4.65;2.40;;;0.70;99.90;;;;;;7250462;32;20139;-74
2021/12/25 13:17:33;;;;;;;3.80;2.15;;;0.60;99.90;;;;;;7251348;32;20151;-75
2021/12/25 13:21:37;;;;;;;4.78;2.58;;;0.60;99.90;;;;;;7247422;32;20116;-75
2021/12/25 13:25:56;;;;;;;3.85;2.30;;;0.60;99.90;;;;;;7235991;32;21395;-74
2021/12/25 13:30:19;;;;;;;3.80;2.30;;;0.70;99.90;;;;;;7233273;32;20128;-75
2021/12/25 13:34:23;;;;;;;3.35;2.00;;;0.90;99.90;;;;;;7241218;32;20518;-76
2021/12/25 13:38:26;;;;;;;3.47;1.83;;;0.90;99.90;;;;;;7247170;32;20729;-74
2021/12/25 13:42:30;;;;;;;3.67;2.20;;;0.90;99.90;;;;;;7237596;32;20195;-76
2021/12/25 13:46:46;;;;;;;5.75;2.47;;;0.80;99.90;;;;;;7241744;32;20155;-76
2021/12/25 13:50:50;;;;;;;4.03;1.75;;;0.80;99.90;;;;;;7255592;32;20555;-75
2021/12/25 13:55:07;;;;;;;4.93;1.70;;;0.70;99.90;;;;;;7257643;32;20104;-75
2021/12/25 13:59:09;;;;;;;5.15;2.08;;;0.70;99.90;;;;;;7256555;32;20191;-76
2021/12/25 14:03:14;;;;;;;3.78;1.98;;;0.70;99.90;;;;;;7238602;32;20112;-76
2021/12/25 14:07:18;;;;;;;2.78;1.62;;;0.70;99.90;;;;;;7256568;32;20168;-74
2021/12/25 14:11:20;;;;;;;3.17;1.87;;;0.60;99.90;;;;;;7255501;32;20852;-77
2021/12/25 14:15:28;;;;;;;3.67;1.73;;;0.60;99.90;;;;;;7243479;32;20138;-75
2021/12/25 14:19:31;;;;;;;2.50;1.70;;;0.60;99.90;;;;;;7259222;32;20462;-75
2021/12/25 14:23:33;;;;;;;2.42;1.50;;;0.60;99.90;;;;;;7239681;32;20116;-74
2021/12/25 14:27:35;;;;;;;2.55;1.70;;;0.60;99.90;;;;;;7221193;32;20117;-76
2021/12/25 14:31:40;;;;;;;3.03;1.70;;;0.60;99.90;;;;;;7250590;32;20104;-75
2021/12/25 14:35:42;;;;;;;2.87;1.45;;;0.50;99.90;;;;;;7227373;32;20117;-75
2021/12/25 14:40:19;;;;;;;2.35;1.40;;;0.50;99.90;;;;;;7223359;32;20128;-75
2021/12/25 14:44:23;;;;;;;2.17;1.23;;;0.50;99.90;;;;;;7243776;32;20124;-75
2021/12/25 14:48:30;;;;;;;2.08;1.35;;;0.50;99.90;;;;;;7237557;32;20128;-75
2021/12/25 14:52:32;;;;;;;3.37;1.40;;;0.40;99.90;;;;;;7252552;32;20168;-75
2021/12/25 14:56:40;;;;;;;2.92;1.73;;;0.30;99.90;;;;;;7246394;32;20108;-76
2021/12/25 15:00:43;;;;;;;2.45;1.60;;;0.30;99.90;;;;;;7240246;32;20792;-75
2021/12/25 15:04:52;;;;;;;2.60;1.60;;;0.30;99.90;;;;;;7250279;32;20450;-75
2021/12/25 15:09:07;;;;;;;2.92;1.48;;;0.30;99.90;;;;;;7253210;32;20775;-75
2021/12/25 15:13:19;;;;;;;3.05;1.62;;;0.30;99.90;;;;;;7246209;32;20135;-75
2021/12/25 15:17:27;;;;;;;2.95;1.65;;;0.30;99.90;;;;;;7239345;32;20150;-75
2021/12/25 15:21:29;;;;;;;3.45;1.60;;;0.20;99.90;;;;;;7240448;32;20211;-75
2021/12/25 15:25:30;;;;;;;2.22;1.50;;;0.20;99.90;;;;;;7232294;32;20143;-75
2021/12/25 15:29:42;;;;;;;2.45;1.58;;;0.20;99.90;;;;;;7252385;32;20108;-75
2021/12/25 15:33:46;;;;;;;4.30;1.62;;;0.20;99.90;;;;;;7237972;32;20158;-75
2021/12/25 15:37:50;;;;;;;2.62;1.55;;;0.20;99.90;;;;;;7246892;32;21225;-75
2021/12/25 15:41:53;;;;;;;2.50;1.27;;;0.20;99.90;;;;;;7243745;32;20186;-76
2021/12/25 15:46:01;;;;;;;3.33;1.70;;;0.20;99.90;;;;;;7254640;32;20127;-75
2021/12/25 15:50:05;;;;;;;2.92;1.50;;;0.20;99.90;;;;;;7252910;32;20132;-75
2021/12/25 15:54:07;;;;;;;3.58;1.37;;;0.10;99.90;;;;;;7227361;32;20120;-75
2021/12/25 15:58:13;;;;;;;3.22;1.20;;;0.10;99.90;;;;;;7240071;32;20260;-75
2021/12/25 16:02:18;;;;;;;2.30;1.27;;;0.00;99.90;;;;;;7248453;32;20120;-75
2021/12/25 16:06:20;;;;;;;2.60;1.10;;;0.00;99.90;;;;;;7254526;32;20209;-75
2021/12/25 16:10:23;;;;;;;1.73;1.00;;;0.00;99.90;;;;;;7246870;32;20111;-75
2021/12/25 16:14:27;;;;;;;2.80;1.10;;;0.00;99.90;;;;;;7240727;32;20239;-75
2021/12/25 16:18:32;;;;;;;2.20;1.05;;;-0.20;99.90;;;;;;7258455;32;20223;-76
2021/12/25 16:22:34;;;;;;;2.62;1.30;;;-0.20;99.90;;;;;;7256624;32;20219;-76
2021/12/25 16:26:36;;;;;;;3.83;1.15;;;-0.30;99.90;;;;;;7256274;32;20742;-75
2021/12/25 16:30:39;;;;;;;3.45;1.10;;;-0.30;99.90;;;;;;7254058;32;20194;-75
2021/12/25 16:34:44;;;;;;;4.03;1.30;;;-0.30;99.90;;;;;;7257484;32;20839;-75
2021/12/25 16:38:46;;;;;;;2.03;0.93;;;-0.40;99.90;;;;;;7233379;32;20180;-76
2021/12/25 16:42:47;;;;;;;4.37;1.33;;;-0.40;99.90;;;;;;7258383;32;20100;-76
2021/12/25 16:46:50;;;;;;;3.40;1.27;;;-0.50;99.90;;;;;;7241995;32;20259;-76
2021/12/25 16:50:51;;;;;;;3.55;1.37;;;-0.60;99.90;;;;;;7241597;32;20136;-76
2021/12/25 16:54:53;;;;;;;2.03;1.15;;;-0.60;99.90;;;;;;7254581;32;20178;-76
2021/12/25 16:58:55;;;;;;;3.20;1.20;;;-0.70;99.90;;;;;;7241317;32;20227;-77
2021/12/25 17:03:01;;;;;;;3.90;1.70;;;-0.60;99.90;;;;;;7243029;32;20537;-77
2021/12/25 17:07:03;;;;;;;3.60;1.30;;;-0.70;99.90;;;;;;7243864;32;20852;-76
2021/12/25 17:11:05;;;;;;;5.22;1.45;;;-0.80;99.90;;;;;;7234693;32;20104;-75
2021/12/25 17:15:12;;;;;;;3.28;1.60;;;-0.80;99.90;;;;;;7239213;32;20248;-75
2021/12/25 17:19:15;;;;;;;4.75;2.12;;;-0.80;99.90;;;;;;7252070;32;20109;-75
2021/12/25 17:23:19;;;;;;;4.43;2.30;;;-0.80;99.90;;;;;;7253318;32;20162;-77
2021/12/25 17:27:21;;;;;;;4.53;2.20;;;-0.90;99.90;;;;;;7251959;32;20217;-77
2021/12/25 17:31:24;;;;;;;5.03;2.58;;;-1.00;99.90;;;;;;7246514;32;20201;-77
2021/12/25 17:35:27;;;;;;;5.03;2.25;;;-0.90;99.90;;;;;;7244850;32;20207;-77
2021/12/25 17:39:29;;;;;;;5.18;2.72;;;-0.90;99.90;;;;;;7263481;32;20207;-77
2021/12/25 17:43:34;;;;;;;5.80;2.90;;;-0.90;99.90;;;;;;7259423;32;20119;-77
2021/12/25 17:47:36;;;;;;;2.03;1.42;;;-0.80;99.90;;;;;;7258372;32;20170;-77
2021/12/25 17:51:39;;;;;;;2.78;1.62;;;-0.80;99.90;;;;;;7255816;32;20132;-76
2021/12/25 17:55:41;;;;;;;2.60;1.60;;;-0.90;99.90;;;;;;7230902;32;20454;-76
2021/12/25 17:59:44;;;;;;;2.95;1.75;;;-0.80;99.90;;;;;;7241351;32;20112;-77
2021/12/25 18:03:46;;;;;;;4.03;1.73;;;-0.90;99.90;;;;;;7234668;32;20185;-77
2021/12/25 18:07:49;;;;;;;6.22;1.40;;;-1.00;99.90;;;;;;7256519;32;20267;-76
2021/12/25 18:11:50;;;;;;;3.08;1.67;;;-0.90;99.90;;;;;;7251437;32;20192;-76
2021/12/25 18:15:53;;;;;;;5.07;1.50;;;-0.90;99.90;;;;;;7238476;32;20672;-76
2021/12/25 18:19:55;;;;;;;5.15;2.05;;;-1.00;99.90;;;;;;7256667;32;20822;-76
2021/12/25 18:23:57;;;;;;;3.72;1.80;;;-1.10;99.90;;;;;;7245829;32;20633;-77
2021/12/25 18:27:59;;;;;;;3.22;1.60;;;-1.10;99.90;;;;;;7239638;32;20124;-75
2021/12/25 18:32:01;;;;;;;5.03;2.08;;;-1.20;99.90;;;;;;7240072;32;20116;-75
2021/12/25 18:36:03;;;;;;;7.43;2.30;;;-1.10;99.90;;;;;;7229023;32;20108;-75
2021/12/25 18:40:15;;;;;;;3.72;1.70;;;-1.10;99.90;;;;;;7262918;32;20507;-74
2021/12/25 18:44:19;;;;;;;3.80;1.95;;;-1.10;99.90;;;;;;7254777;32;20121;-75
2021/12/25 18:48:21;;;;;;;4.95;1.80;;;-1.20;99.90;;;;;;7239506;32;20502;-74
2021/12/25 18:52:23;;;;;;;5.32;2.20;;;-1.20;99.90;;;;;;7263241;32;20150;-75
2021/12/25 18:56:25;;;;;;;2.33;1.35;;;-1.10;99.90;;;;;;7250845;32;20112;-75
2021/12/25 19:00:31;;;;;;;4.00;2.10;;;-1.10;99.90;;;;;;7270690;32;20061;-73
2021/12/25 19:04:33;;;;;;;7.17;2.50;;;-1.20;99.90;;;;;;7276135;32;20617;-71
2021/12/25 19:08:36;;;;;;;5.10;2.05;;;-1.10;99.90;;;;;;7270032;32;20197;-72
2021/12/25 19:12:40;;;;;;;3.78;1.87;;;-1.10;99.90;;;;;;7288365;32;20172;-72
2021/12/25 19:16:41;;;;;;;4.85;1.85;;;-1.10;99.90;;;;;;7290926;32;20079;-73
2021/12/25 19:20:44;;;;;;;5.10;2.05;;;-1.10;99.90;;;;;;7290821;32;20085;-72
2021/12/25 19:24:46;;;;;;;2.42;1.87;;;-1.10;99.90;;;;;;7279392;32;20155;-71
2021/12/25 19:28:48;;;;;;;2.85;1.60;;;-1.00;99.90;;;;;;7285983;32;20073;-70
2021/12/25 19:32:50;;;;;;;4.78;2.40;;;-1.10;99.90;;;;;;7284332;32;20240;-74
2021/12/25 19:36:52;;;;;;;4.20;2.10;;;-1.20;99.90;;;;;;7232906;32;20113;-75
2021/12/25 19:40:57;;;;;;;4.10;1.67;;;-1.20;99.90;;;;;;7238142;32;20162;-74
2021/12/25 19:44:59;;;;;;;3.12;1.73;;;-1.20;99.90;;;;;;7250583;32;20124;-75
2021/12/25 19:49:05;;;;;;;4.35;2.10;;;-1.20;99.90;;;;;;7237445;32;20116;-75
2021/12/25 19:53:10;;;;;;;8.25;1.83;;;-1.30;99.90;;;;;;7252102;32;20628;-74
2021/12/25 19:57:12;;;;;;;5.65;1.90;;;-1.30;99.90;;;;;;7232420;32;20196;-75
2021/12/25 20:01:19;;;;;;;4.07;2.08;;;-1.30;99.90;;;;;;7236174;32;20117;-75
2021/12/25 20:05:21;;;;;;;4.25;2.10;;;-1.30;99.90;;;;;;7250476;32;20108;-76
2021/12/25 20:09:23;;;;;;;4.15;1.92;;;-1.30;99.90;;;;;;7240353;32;20172;-75
2021/12/25 20:13:28;;;;;;;5.00;1.83;;;-1.20;99.90;;;;;;7237208;32;20268;-75
2021/12/25 20:17:30;;;;;;;3.78;2.00;;;-1.30;99.90;;;;;;7254677;32;20191;-75
2021/12/25 20:21:37;;;;;;;3.10;1.70;;;-1.30;99.90;;;;;;7253264;32;20162;-75
2021/12/25 20:25:38;;;;;;;2.78;2.00;;;-1.30;99.90;;;;;;7238551;32;20130;-76
2021/12/25 20:29:40;;;;;;;3.17;1.92;;;-1.30;99.90;;;;;;7253068;32;20229;-76
2021/12/25 20:33:45;;;;;;;5.05;2.00;;;-1.40;99.90;;;;;;7253446;32;20120;-76
2021/12/25 20:37:48;;;;;;;3.97;2.37;;;-1.50;99.90;;;;;;7240645;32;20108;-77
2021/12/25 20:41:50;;;;;;;3.78;1.80;;;-1.50;99.90;;;;;;7254141;32;20191;-76
2021/12/25 20:45:52;;;;;;;4.65;1.87;;;-1.60;99.90;;;;;;7228056;32;20170;-76
2021/12/25 20:49:55;;;;;;;8.65;6.72;;;-1.60;99.90;;;;;;7241398;32;20879;-76
2021/12/25 20:53:57;;;;;;;3.87;2.17;;;-1.60;99.90;;;;;;7251872;32;20105;-76
2021/12/25 20:58:00;;;;;;;25.70;18.70;;;-1.70;99.90;;;;;;7252778;32;20100;-76
2021/12/25 21:02:04;;;;;;;7.15;4.28;;;-1.80;99.90;;;;;;7242624;32;20174;-76
2021/12/25 21:06:07;;;;;;;6.53;3.47;;;-1.80;99.90;;;;;;7245874;32;20109;-77
2021/12/25 21:10:09;;;;;;;4.20;2.05;;;-1.80;99.90;;;;;;7228604;32;20249;-77
2021/12/25 21:14:11;;;;;;;4.85;2.20;;;-1.80;99.90;;;;;;7254035;32;20270;-75
2021/12/25 21:18:13;;;;;;;6.75;3.90;;;-1.80;99.90;;;;;;7252803;32;20600;-76
2021/12/25 21:22:16;;;;;;;3.85;1.92;;;-1.70;99.90;;;;;;7234775;32;20121;-76
2021/12/25 21:26:18;;;;;;;4.75;2.47;;;-1.70;99.90;;;;;;7235392;32;20207;-76
2021/12/25 21:30:20;;;;;;;574.97;229.87;;;-1.70;99.90;;;;;;7248813;32;20505;-75
2021/12/25 21:34:22;;;;;;;65.93;38.92;;;-1.70;99.90;;;;;;7236413;32;20497;-75
2021/12/25 21:38:27;;;;;;;4.20;2.62;;;-1.70;99.90;;;;;;7233131;32;20101;-76
2021/12/25 21:42:29;;;;;;;10.38;4.78;;;-1.70;99.90;;;;;;7236690;32;20109;-76
2021/12/25 21:46:31;;;;;;;4.97;3.15;;;-1.70;99.90;;;;;;7232585;32;20556;-76
2021/12/25 21:50:35;;;;;;;7.37;3.03;;;-1.70;99.90;;;;;;7250324;32;20113;-76
2021/12/25 21:54:38;;;;;;;6.72;3.60;;;-1.70;99.90;;;;;;7252325;32;20239;-76
2021/12/25 21:58:44;;;;;;;15.30;5.22;;;-1.70;99.90;;;;;;7251493;32;20257;-75
2021/12/25 22:02:48;;;;;;;7.40;3.72;;;-1.70;99.90;;;;;;7251311;32;20219;-76
2021/12/25 22:06:50;;;;;;;4.35;2.83;;;-1.60;99.90;;;;;;7235842;32;20214;-76
2021/12/25 22:10:52;;;;;;;4.82;2.72;;;-1.60;99.90;;;;;;7233088;32;20170;-77
2021/12/25 22:14:54;;;;;;;4.68;2.10;;;-1.70;99.90;;;;;;7243934;32;20329;-77
2021/12/25 22:18:56;;;;;;;3.37;2.10;;;-1.80;99.90;;;;;;7236597;32;20120;-76
2021/12/25 22:22:58;;;;;;;5.60;3.22;;;-1.80;99.90;;;;;;7245454;32;20112;-76
2021/12/25 22:27:00;;;;;;;5.07;2.42;;;-1.70;99.90;;;;;;7251054;32;20207;-77
2021/12/25 22:31:02;;;;;;;4.82;2.05;;;-1.70;99.90;;;;;;7238447;32;20105;-75